Time;durP1;ratioP1;P1;durP2;ratioP2;P2;SDS_P1;SDS_P2;PMS_P1;PMS_P2;Temp;Humidity;BMP_temperature;BMP_pressure;BME280_temperature;BME280_humidity;BME280_pressure;Samples;Min_cycle;Max_cycle;Signal;HPM_P1;HPM_P2
2022/01/25 00:10:39;;;;;;;70.88;45.80;;;;;;;;;;5007597;28;20042;-63
2022/01/25 00:26:32;;;;;;;71.93;47.85;;;;;;;;;;5039329;28;20041;-62
2022/01/25 00:29:08;;;;;;;;;;;;;;;;;;4975674;28;20042;-62
2022/01/25 00:31:35;;;;;;;76.50;48.15;;;;;;;;;;5039731;28;19917;-63
2022/01/25 00:34:02;;;;;;;73.20;46.42;;;;;;;;;;5021970;28;20614;-63
2022/01/25 00:36:29;;;;;;;73.55;47.55;;;;;;;;;;5006082;28;20242;-62
2022/01/25 00:38:56;;;;;;;75.45;48.33;;;;;;;;;;5007983;28;20034;-63
2022/01/25 00:41:22;;;;;;;72.13;47.05;;;;;;;;;;4989440;28;20053;-63
2022/01/25 00:43:49;;;;;;;76.30;48.05;;;;;;;;;;5006154;28;20048;-62
2022/01/25 00:46:20;;;;;;;73.13;48.25;;;;;;;;;;5039144;28;20049;-62
2022/01/25 00:48:50;;;;;;;75.57;49.17;;;;;;;;;;4989795;28;20092;-63
2022/01/25 00:56:22;;;;;;;75.57;47.22;;;;;;;;;;5005439;28;20046;-63
2022/01/25 00:58:48;;;;;;;78.13;48.92;;;;;;;;;;5005694;28;20077;-62
2022/01/25 01:01:15;;;;;;;77.07;47.67;;;;;;;;;;5038920;28;20531;-63
2022/01/25 01:03:41;;;;;;;75.55;48.28;;;;;;;;;;5005232;28;20058;-62
2022/01/25 01:06:07;;;;;;;76.60;47.55;;;;;;;;;;5005221;28;20048;-64
2022/01/25 01:08:33;;;;;;;72.47;47.65;;;;;;;;;;4988986;28;20104;-63
2022/01/25 01:11:03;;;;;;;73.60;48.22;;;;;;;;;;5022477;28;20050;-63
2022/01/25 01:30:10;;;;;;;75.93;48.80;;;;;;;;;;5010301;28;20563;-62
2022/01/25 01:38:23;;;;;;;78.90;50.47;;;;;;;;;;5009018;28;20057;-62
2022/01/25 01:43:36;;;;;;;77.57;49.08;;;;;;;;;;5041789;28;20077;-63
2022/01/25 01:51:07;;;;;;;77.38;49.47;;;;;;;;;;5007451;28;20057;-63
2022/01/25 01:53:33;;;;;;;73.93;48.17;;;;;;;;;;5008662;28;20038;-63
2022/01/25 01:56:00;;;;;;;76.65;48.55;;;;;;;;;;5009626;28;20189;-62
2022/01/25 01:58:26;;;;;;;77.57;51.10;;;;;;;;;;5009761;28;20473;-63
2022/01/25 02:00:52;;;;;;;78.53;50.50;;;;;;;;;;5008701;28;20038;-62
2022/01/25 02:03:19;;;;;;;77.68;48.35;;;;;;;;;;5006997;28;20404;-63
2022/01/25 02:05:45;;;;;;;79.32;49.70;;;;;;;;;;5006068;28;20034;-63
2022/01/25 02:08:11;;;;;;;75.80;47.42;;;;;;;;;;4991717;28;20038;-63
2022/01/25 02:10:37;;;;;;;77.78;50.42;;;;;;;;;;4992006;28;20468;-63
2022/01/25 02:13:08;;;;;;;76.95;47.78;;;;;;;;;;5041034;28;20045;-63
2022/01/25 02:15:36;;;;;;;76.43;49.13;;;;;;;;;;5007315;28;20053;-62
2022/01/25 02:23:18;;;;;;;78.15;49.42;;;;;;;;;;5007732;28;20061;-62
2022/01/25 02:25:48;;;;;;;75.80;47.65;;;;;;;;;;5025101;28;20470;-62
2022/01/25 02:28:15;;;;;;;82.78;51.53;;;;;;;;;;5008851;28;20038;-63
2022/01/25 02:30:41;;;;;;;75.47;49.50;;;;;;;;;;5009858;28;20073;-62
2022/01/25 02:33:07;;;;;;;79.68;49.67;;;;;;;;;;4991117;28;20598;-63
2022/01/25 02:35:34;;;;;;;76.72;48.22;;;;;;;;;;5009772;28;20046;-63
2022/01/25 02:38:00;;;;;;;75.35;49.28;;;;;;;;;;5007828;28;20128;-63
2022/01/25 02:40:26;;;;;;;80.80;51.92;;;;;;;;;;5007853;28;20152;-62
2022/01/25 02:42:53;;;;;;;81.47;51.58;;;;;;;;;;5040670;28;20042;-63
2022/01/25 02:45:19;;;;;;;81.20;51.88;;;;;;;;;;5007007;28;20108;-61
2022/01/25 02:50:30;;;;;;;78.07;50.45;;;;;;;;;;5007503;28;20049;-63
2022/01/25 02:52:56;;;;;;;83.07;52.47;;;;;;;;;;5024652;28;20391;-60
2022/01/25 02:55:23;;;;;;;80.03;51.67;;;;;;;;;;5007832;28;20034;-62
2022/01/25 02:57:49;;;;;;;81.35;51.20;;;;;;;;;;5040427;28;20625;-61
2022/01/25 03:00:16;;;;;;;85.97;52.90;;;;;;;;;;5008089;28;20033;-61
2022/01/25 03:02:42;;;;;;;83.00;51.72;;;;;;;;;;5007052;28;20084;-60
2022/01/25 03:05:09;;;;;;;80.13;51.75;;;;;;;;;;5007590;28;20439;-61
2022/01/25 03:07:37;;;;;;;82.47;51.78;;;;;;;;;;5009307;28;20065;-60
2022/01/25 03:10:04;;;;;;;84.35;53.03;;;;;;;;;;5008483;28;20132;-61
2022/01/25 03:12:55;;;;;;;84.10;52.40;;;;;;;;;;5007924;28;20141;-59
2022/01/25 03:17:49;;;;;;;84.32;52.78;;;;;;;;;;5008470;28;20129;-61
2022/01/25 03:20:21;;;;;;;83.72;52.33;;;;;;;;;;5007255;28;20057;-61
2022/01/25 03:25:23;;;;;;;90.75;53.55;;;;;;;;;;5007775;28;20399;-60
2022/01/25 03:27:49;;;;;;;84.78;54.15;;;;;;;;;;5007528;28;20033;-61
2022/01/25 03:30:15;;;;;;;82.10;51.63;;;;;;;;;;5006225;28;20034;-61
2022/01/25 03:32:41;;;;;;;84.25;51.60;;;;;;;;;;5021091;28;20439;-61
2022/01/25 03:35:07;;;;;;;82.80;52.17;;;;;;;;;;5023840;28;20141;-60
2022/01/25 03:37:33;;;;;;;83.22;52.47;;;;;;;;;;5023747;28;20060;-61
2022/01/25 03:40:00;;;;;;;83.20;52.58;;;;;;;;;;5023730;28;20049;-61
2022/01/25 03:42:26;;;;;;;85.65;51.92;;;;;;;;;;5006677;28;20041;-61
2022/01/25 03:44:52;;;;;;;80.18;50.45;;;;;;;;;;5023925;28;20045;-61
2022/01/25 03:47:22;;;;;;;81.90;50.28;;;;;;;;;;5008534;28;20034;-61
2022/01/25 03:52:16;;;;;;;84.82;52.38;;;;;;;;;;5040572;28;20073;-60
2022/01/25 03:54:42;;;;;;;83.60;51.83;;;;;;;;;;5008577;28;20095;-60
2022/01/25 03:57:08;;;;;;;80.72;51.55;;;;;;;;;;5008273;28;20141;-61
2022/01/25 03:59:34;;;;;;;79.50;49.15;;;;;;;;;;5007354;28;20107;-61
2022/01/25 04:02:01;;;;;;;77.85;49.55;;;;;;;;;;5007034;28;20058;-64
2022/01/25 04:04:29;;;;;;;82.57;51.22;;;;;;;;;;5006746;28;20164;-61
2022/01/25 04:06:55;;;;;;;84.82;52.08;;;;;;;;;;5039777;28;20042;-61
2022/01/25 04:09:21;;;;;;;82.93;51.72;;;;;;;;;;5008055;28;20121;-61
2022/01/25 04:11:47;;;;;;;79.45;50.45;;;;;;;;;;5006938;28;20523;-61
2022/01/25 04:14:14;;;;;;;79.25;50.72;;;;;;;;;;5007449;28;20377;-61
2022/01/25 04:16:59;;;;;;;78.65;50.20;;;;;;;;;;5008424;28;20377;-60
2022/01/25 04:19:39;;;;;;;83.57;51.45;;;;;;;;;;5007988;28;20061;-61
2022/01/25 04:24:44;;;;;;;82.72;51.33;;;;;;;;;;5006615;28;20488;-60
2022/01/25 04:27:10;;;;;;;78.18;48.60;;;;;;;;;;5039581;28;20140;-61
2022/01/25 04:29:36;;;;;;;82.78;51.50;;;;;;;;;;5008351;28;20042;-60
2022/01/25 04:32:05;;;;;;;83.97;53.30;;;;;;;;;;5039018;28;20060;-62
2022/01/25 04:53:15;;;;;;;81.93;51.42;;;;;;;;;;5006778;28;20044;-60
2022/01/25 04:55:52;;;;;;;86.10;53.45;;;;;;;;;;5005537;28;20042;-63
2022/01/25 05:01:17;;;;;;;81.28;51.78;;;;;;;;;;4981482;28;20345;-63
2022/01/25 05:04:06;;;;;;;86.95;52.72;;;;;;;;;;5011444;28;20045;-63
2022/01/25 05:06:33;;;;;;;83.03;50.35;;;;;;;;;;5008910;28;20036;-63
2022/01/25 05:09:10;;;;;;;87.50;52.50;;;;;;;;;;5010906;28;20087;-62
2022/01/25 05:11:40;;;;;;;86.82;52.30;;;;;;;;;;5009360;28;20314;-61
2022/01/25 05:16:36;;;;;;;81.65;53.20;;;;;;;;;;5042927;28;20586;-62
2022/01/25 05:19:23;;;;;;;87.03;52.17;;;;;;;;;;5009414;28;20042;-62
2022/01/25 05:24:53;;;;;;;88.13;53.58;;;;;;;;;;4948885;29;20138;-61
2022/01/25 05:27:20;;;;;;;89.00;55.20;;;;;;;;;;4990811;28;20165;-62
2022/01/25 05:29:46;;;;;;;84.65;52.83;;;;;;;;;;5006591;28;20395;-62
2022/01/25 05:32:13;;;;;;;84.55;53.08;;;;;;;;;;5025106;28;20042;-62
2022/01/25 05:34:39;;;;;;;86.63;52.33;;;;;;;;;;5011429;28;20037;-60
2022/01/25 05:37:07;;;;;;;89.65;53.33;;;;;;;;;;5042610;28;20494;-60
2022/01/25 05:39:35;;;;;;;84.05;52.25;;;;;;;;;;5009644;28;20084;-61
2022/01/25 05:43:52;;;;;;;89.63;54.85;;;;;;;;;;5041200;28;20046;-62
2022/01/25 05:45:11;;;;;;;85.82;52.65;;;;;;;;;;4998772;28;20087;-61
2022/01/25 05:47:38;;;;;;;84.68;52.85;;;;;;;;;;5009062;28;20500;-61
2022/01/25 05:50:04;;;;;;;86.40;53.03;;;;;;;;;;5009777;28;20052;-62
2022/01/25 05:52:30;;;;;;;91.03;53.50;;;;;;;;;;5042545;28;20053;-60
2022/01/25 05:54:58;;;;;;;82.95;53.22;;;;;;;;;;5009375;28;20125;-61
2022/01/25 05:57:24;;;;;;;88.18;54.28;;;;;;;;;;5009472;28;20058;-60
2022/01/25 05:59:50;;;;;;;85.75;54.05;;;;;;;;;;5009745;28;20049;-60
2022/01/25 06:02:19;;;;;;;91.07;55.65;;;;;;;;;;5008591;28;20057;-60
2022/01/25 06:04:46;;;;;;;89.13;55.33;;;;;;;;;;5009877;28;20050;-61
2022/01/25 06:07:12;;;;;;;90.55;54.50;;;;;;;;;;5007523;28;20044;-62
2022/01/25 06:09:40;;;;;;;89.05;55.58;;;;;;;;;;5008193;28;20041;-61
2022/01/25 06:12:06;;;;;;;95.40;55.35;;;;;;;;;;5009400;28;20046;-61
2022/01/25 06:14:32;;;;;;;86.30;53.83;;;;;;;;;;5008648;28;20054;-60
2022/01/25 06:16:58;;;;;;;84.95;53.20;;;;;;;;;;5007975;28;20061;-60
2022/01/25 06:19:27;;;;;;;89.00;54.00;;;;;;;;;;5007848;28;20052;-60
2022/01/25 06:21:53;;;;;;;88.63;54.20;;;;;;;;;;5007180;28;20471;-61
2022/01/25 06:24:19;;;;;;;94.05;56.65;;;;;;;;;;4991324;28;20428;-60
2022/01/25 06:26:45;;;;;;;92.93;56.35;;;;;;;;;;5008811;28;20038;-60
2022/01/25 06:29:15;;;;;;;88.40;54.58;;;;;;;;;;4993320;28;20566;-61
2022/01/25 06:31:42;;;;;;;93.40;56.05;;;;;;;;;;5011178;28;20069;-61
2022/01/25 06:34:08;;;;;;;92.50;57.05;;;;;;;;;;5010818;28;20033;-61
2022/01/25 06:36:34;;;;;;;91.63;55.05;;;;;;;;;;5010082;28;20063;-61
2022/01/25 06:39:00;;;;;;;92.65;55.75;;;;;;;;;;5043056;28;20048;-60
2022/01/25 06:41:27;;;;;;;89.05;55.13;;;;;;;;;;5009634;28;20115;-60
2022/01/25 06:43:53;;;;;;;91.18;57.03;;;;;;;;;;5025633;28;20053;-60
2022/01/25 06:46:19;;;;;;;88.07;54.33;;;;;;;;;;5042910;28;20077;-61
2022/01/25 06:48:45;;;;;;;89.72;53.30;;;;;;;;;;5009136;28;20582;-61
2022/01/25 06:51:11;;;;;;;90.80;54.88;;;;;;;;;;5042563;28;20052;-61
2022/01/25 06:53:37;;;;;;;90.65;54.75;;;;;;;;;;5009494;28;20518;-61
2022/01/25 06:56:05;;;;;;;87.40;53.97;;;;;;;;;;5041987;28;20041;-61
2022/01/25 06:58:31;;;;;;;91.88;55.30;;;;;;;;;;5003431;28;20099;-61
2022/01/25 07:00:58;;;;;;;88.30;53.47;;;;;;;;;;5009416;28;20050;-60
2022/01/25 07:03:24;;;;;;;92.10;55.92;;;;;;;;;;5008776;28;20080;-60
2022/01/25 07:05:50;;;;;;;89.05;53.30;;;;;;;;;;4993082;28;20114;-61
2022/01/25 07:08:16;;;;;;;94.32;56.75;;;;;;;;;;4992561;28;20380;-61
2022/01/25 07:10:42;;;;;;;88.22;54.90;;;;;;;;;;5043378;28;20085;-60
2022/01/25 07:13:08;;;;;;;86.97;52.60;;;;;;;;;;5009631;28;20396;-60
2022/01/25 07:15:35;;;;;;;94.63;55.28;;;;;;;;;;5009298;28;20042;-60
2022/01/25 07:18:01;;;;;;;91.65;55.83;;;;;;;;;;5009248;28;20034;-61
2022/01/25 07:20:30;;;;;;;93.88;57.28;;;;;;;;;;5008949;28;20036;-60
2022/01/25 07:22:56;;;;;;;92.63;55.63;;;;;;;;;;5008570;28;20045;-60
2022/01/25 07:25:22;;;;;;;95.07;55.95;;;;;;;;;;5042484;28;20514;-60
2022/01/25 07:27:48;;;;;;;90.72;54.15;;;;;;;;;;5008893;28;20046;-61
2022/01/25 07:30:14;;;;;;;91.18;56.28;;;;;;;;;;5008817;28;20587;-61
2022/01/25 07:32:40;;;;;;;92.35;55.17;;;;;;;;;;5041379;28;20053;-60
2022/01/25 07:35:07;;;;;;;95.43;56.55;;;;;;;;;;5039678;28;20041;-62
2022/01/25 07:37:33;;;;;;;94.72;56.42;;;;;;;;;;5039568;28;20040;-62
2022/01/25 07:39:59;;;;;;;96.15;56.72;;;;;;;;;;5039977;28;20080;-62
2022/01/25 07:42:27;;;;;;;91.68;54.50;;;;;;;;;;5023895;28;20088;-62
2022/01/25 07:44:54;;;;;;;96.07;57.72;;;;;;;;;;5009821;28;20238;-62
2022/01/25 07:47:20;;;;;;;89.72;54.15;;;;;;;;;;5007863;28;20131;-61
2022/01/25 07:49:46;;;;;;;95.95;56.08;;;;;;;;;;4991207;28;20045;-62
2022/01/25 07:52:13;;;;;;;97.03;56.45;;;;;;;;;;5041130;28;20042;-62
2022/01/25 07:54:39;;;;;;;87.18;53.28;;;;;;;;;;5007453;28;20081;-61
2022/01/25 07:57:05;;;;;;;96.32;57.20;;;;;;;;;;5007556;28;20042;-63
2022/01/25 07:59:31;;;;;;;93.38;56.10;;;;;;;;;;5040021;28;20103;-62
2022/01/25 08:01:57;;;;;;;93.88;55.10;;;;;;;;;;5039831;28;20045;-62
2022/01/25 08:04:24;;;;;;;88.32;54.47;;;;;;;;;;5039782;28;20044;-64
2022/01/25 08:06:50;;;;;;;87.18;52.08;;;;;;;;;;5006985;28;20037;-62
2022/01/25 08:09:16;;;;;;;92.78;54.88;;;;;;;;;;5039798;28;20053;-62
2022/01/25 08:11:43;;;;;;;93.70;55.70;;;;;;;;;;5027865;28;20103;-62
2022/01/25 08:14:27;;;;;;;97.38;57.13;;;;;;;;;;5008773;28;20065;-63
2022/01/25 08:16:53;;;;;;;95.68;55.55;;;;;;;;;;5039455;28;20041;-62
2022/01/25 08:19:20;;;;;;;90.85;54.45;;;;;;;;;;5007463;28;20542;-62
2022/01/25 08:21:47;;;;;;;98.57;55.47;;;;;;;;;;5003595;28;20049;-63
2022/01/25 08:24:14;;;;;;;91.97;55.20;;;;;;;;;;5038670;28;20050;-61
2022/01/25 08:26:43;;;;;;;92.68;54.03;;;;;;;;;;5005274;28;20111;-63
2022/01/25 08:29:10;;;;;;;93.38;56.85;;;;;;;;;;5005721;28;20125;-62
2022/01/25 08:31:37;;;;;;;97.13;57.33;;;;;;;;;;5042699;28;20068;-62
2022/01/25 08:34:03;;;;;;;98.10;57.08;;;;;;;;;;5041305;28;20034;-62
2022/01/25 08:36:29;;;;;;;101.07;57.92;;;;;;;;;;5011302;28;20049;-62
2022/01/25 08:38:55;;;;;;;96.55;56.45;;;;;;;;;;5043287;28;20045;-62
2022/01/25 08:41:21;;;;;;;95.60;56.25;;;;;;;;;;5042336;28;20260;-62
2022/01/25 08:43:48;;;;;;;96.25;56.85;;;;;;;;;;5009533;28;20041;-62
2022/01/25 08:46:14;;;;;;;94.97;56.85;;;;;;;;;;5042395;28;20136;-62
2022/01/25 08:48:40;;;;;;;90.20;55.70;;;;;;;;;;5009558;28;20099;-62
2022/01/25 08:51:07;;;;;;;91.78;53.38;;;;;;;;;;5009640;28;20037;-62
2022/01/25 08:53:33;;;;;;;95.85;57.15;;;;;;;;;;5009641;28;20507;-62
2022/01/25 08:56:00;;;;;;;98.15;53.58;;;;;;;;;;4992780;28;20042;-62
2022/01/25 08:58:26;;;;;;;94.82;52.55;;;;;;;;;;5010974;28;20045;-63
2022/01/25 09:00:52;;;;;;;96.25;55.83;;;;;;;;;;5006952;28;20046;-61
2022/01/25 09:03:18;;;;;;;97.32;56.65;;;;;;;;;;5010863;28;20488;-61
2022/01/25 09:05:45;;;;;;;94.32;53.97;;;;;;;;;;5042659;28;20065;-61
2022/01/25 09:08:16;;;;;;;92.20;54.58;;;;;;;;;;5009357;28;20045;-62
2022/01/25 09:10:42;;;;;;;97.57;55.83;;;;;;;;;;5009333;28;20052;-62
2022/01/25 09:13:08;;;;;;;93.85;52.78;;;;;;;;;;5024192;28;20038;-62
2022/01/25 09:15:35;;;;;;;94.22;54.17;;;;;;;;;;5013271;28;20050;-62
2022/01/25 09:18:01;;;;;;;92.88;54.17;;;;;;;;;;5010261;28;20038;-62
2022/01/25 09:20:27;;;;;;;95.28;55.15;;;;;;;;;;5009954;28;20045;-62
2022/01/25 09:22:53;;;;;;;97.35;55.00;;;;;;;;;;5042302;28;20073;-61
2022/01/25 09:25:19;;;;;;;95.72;54.28;;;;;;;;;;5008850;28;20049;-63
2022/01/25 09:27:45;;;;;;;99.03;56.25;;;;;;;;;;5009667;28;20480;-62
2022/01/25 09:30:11;;;;;;;102.60;56.60;;;;;;;;;;5042301;28;20492;-62
2022/01/25 09:32:37;;;;;;;100.60;59.03;;;;;;;;;;4992795;28;20060;-62
2022/01/25 09:35:04;;;;;;;102.60;58.70;;;;;;;;;;5042393;28;20479;-62
2022/01/25 09:37:30;;;;;;;96.15;54.95;;;;;;;;;;5005546;28;20445;-62
2022/01/25 09:39:56;;;;;;;98.47;56.65;;;;;;;;;;5025242;28;20045;-62
2022/01/25 09:42:23;;;;;;;102.40;58.35;;;;;;;;;;5011765;28;20057;-63
2022/01/25 09:44:49;;;;;;;103.00;55.63;;;;;;;;;;5010334;28;20727;-62
2022/01/25 09:47:15;;;;;;;99.15;56.63;;;;;;;;;;5009772;28;20038;-63
2022/01/25 09:49:41;;;;;;;102.13;57.25;;;;;;;;;;5041519;28;20034;-62
2022/01/25 09:52:08;;;;;;;100.22;56.00;;;;;;;;;;5009205;28;20076;-62
2022/01/25 09:54:35;;;;;;;100.30;54.72;;;;;;;;;;5041772;28;20498;-61
2022/01/25 09:57:02;;;;;;;98.38;55.58;;;;;;;;;;5024809;28;20046;-62
2022/01/25 09:59:29;;;;;;;103.57;59.22;;;;;;;;;;5025442;28;20096;-62
2022/01/25 10:01:55;;;;;;;102.70;56.75;;;;;;;;;;5010688;28;20046;-63
2022/01/25 10:04:30;;;;;;;97.32;54.40;;;;;;;;;;5041889;28;20050;-62
2022/01/25 10:06:56;;;;;;;96.38;55.30;;;;;;;;;;5008652;28;20034;-62
2022/01/25 10:09:25;;;;;;;97.32;55.83;;;;;;;;;;5008707;28;20066;-63
2022/01/25 10:11:51;;;;;;;96.13;54.88;;;;;;;;;;5025760;28;20129;-62
2022/01/25 10:14:18;;;;;;;95.28;55.13;;;;;;;;;;5010661;28;20048;-63
2022/01/25 10:16:45;;;;;;;103.78;58.08;;;;;;;;;;5008614;28;20092;-63
2022/01/25 10:19:12;;;;;;;98.25;57.22;;;;;;;;;;4992618;28;20034;-62
2022/01/25 10:21:40;;;;;;;99.38;53.80;;;;;;;;;;5042442;28;20038;-63
2022/01/25 10:24:08;;;;;;;105.53;59.28;;;;;;;;;;5009159;28;20054;-63
2022/01/25 10:26:39;;;;;;;106.05;58.72;;;;;;;;;;5025891;28;20037;-62
2022/01/25 10:29:05;;;;;;;100.28;56.45;;;;;;;;;;5023780;28;20451;-63
2022/01/25 10:31:36;;;;;;;105.45;57.80;;;;;;;;;;5042240;28;20049;-62
2022/01/25 10:34:03;;;;;;;108.10;58.45;;;;;;;;;;5024968;28;20041;-63
2022/01/25 10:36:29;;;;;;;106.55;58.28;;;;;;;;;;5008447;28;20038;-63
2022/01/25 10:38:56;;;;;;;110.68;58.70;;;;;;;;;;5007964;28;20092;-64
2022/01/25 10:41:27;;;;;;;111.57;61.42;;;;;;;;;;5007654;28;20076;-63
2022/01/25 10:43:54;;;;;;;110.53;58.17;;;;;;;;;;5007241;28;20122;-63
2022/01/25 10:46:31;;;;;;;112.53;58.72;;;;;;;;;;5016848;28;20074;-63
2022/01/25 10:49:00;;;;;;;112.57;58.03;;;;;;;;;;5021777;28;20041;-63
2022/01/25 10:51:31;;;;;;;117.13;58.60;;;;;;;;;;5007786;28;20432;-62
2022/01/25 10:54:17;;;;;;;120.65;61.75;;;;;;;;;;4976339;28;20042;-63
2022/01/25 10:56:47;;;;;;;118.25;61.33;;;;;;;;;;5039147;28;20042;-63
2022/01/25 10:59:23;;;;;;;115.50;58.78;;;;;;;;;;5007086;28;20038;-62
2022/01/25 11:01:51;;;;;;;112.82;59.17;;;;;;;;;;5007179;28;20042;-62
2022/01/25 11:04:18;;;;;;;124.15;62.28;;;;;;;;;;5010537;28;20459;-62
2022/01/25 11:06:45;;;;;;;118.97;58.35;;;;;;;;;;5007636;28;20407;-62
2022/01/25 11:09:12;;;;;;;117.72;59.83;;;;;;;;;;5007175;28;20030;-63
2022/01/25 11:11:44;;;;;;;124.35;61.25;;;;;;;;;;5007052;28;20111;-62
2022/01/25 11:16:55;;;;;;;128.27;63.53;;;;;;;;;;5007379;28;20123;-62
2022/01/25 11:19:22;;;;;;;127.30;61.63;;;;;;;;;;5007984;28;20046;-64
2022/01/25 11:21:49;;;;;;;121.82;59.17;;;;;;;;;;5007136;28;20535;-63
2022/01/25 11:24:17;;;;;;;121.25;56.40;;;;;;;;;;5006578;28;20041;-62
2022/01/25 11:26:44;;;;;;;127.53;60.40;;;;;;;;;;5006353;28;20069;-63
2022/01/25 11:29:10;;;;;;;139.45;65.47;;;;;;;;;;5008227;28;20033;-62
2022/01/25 11:31:41;;;;;;;123.40;58.83;;;;;;;;;;5006570;28;20046;-63
2022/01/25 11:34:09;;;;;;;133.90;62.90;;;;;;;;;;5008263;28;20038;-63
2022/01/25 11:36:58;;;;;;;131.52;62.90;;;;;;;;;;5006683;28;20153;-64
2022/01/25 11:39:26;;;;;;;136.93;63.83;;;;;;;;;;5002313;28;20046;-62
2022/01/25 11:42:00;;;;;;;125.32;60.65;;;;;;;;;;5006099;28;20471;-62
2022/01/25 11:44:27;;;;;;;127.95;60.55;;;;;;;;;;5006065;28;20480;-63
2022/01/25 11:47:15;;;;;;;135.98;63.65;;;;;;;;;;5006826;28;20154;-62
2022/01/25 11:49:51;;;;;;;143.95;66.63;;;;;;;;;;5008520;28;20042;-62
2022/01/25 11:52:17;;;;;;;145.30;64.78;;;;;;;;;;5005164;28;20052;-63
2022/01/25 11:54:44;;;;;;;144.48;64.45;;;;;;;;;;4990522;28;20045;-62
2022/01/25 11:57:12;;;;;;;140.30;63.85;;;;;;;;;;5040235;28;20418;-63
2022/01/25 11:59:39;;;;;;;150.68;66.97;;;;;;;;;;5039944;28;20115;-62
2022/01/25 12:02:05;;;;;;;147.98;66.05;;;;;;;;;;5007119;28;20057;-63
2022/01/25 12:04:31;;;;;;;137.70;61.25;;;;;;;;;;5008179;28;20041;-64
2022/01/25 12:07:03;;;;;;;137.52;63.38;;;;;;;;;;5007836;28;20116;-62
2022/01/25 12:09:45;;;;;;;141.27;63.47;;;;;;;;;;4991163;28;20041;-63
2022/01/25 12:12:17;;;;;;;150.32;66.75;;;;;;;;;;5039261;28;20504;-63
2022/01/25 12:14:46;;;;;;;151.13;65.80;;;;;;;;;;5007398;28;20037;-61
2022/01/25 12:17:14;;;;;;;149.10;66.38;;;;;;;;;;5039567;28;20052;-62
2022/01/25 12:19:48;;;;;;;158.25;67.63;;;;;;;;;;5038341;28;20050;-63
2022/01/25 12:22:42;;;;;;;142.43;63.60;;;;;;;;;;4987894;28;20054;-63
2022/01/25 12:27:58;;;;;;;149.43;66.57;;;;;;;;;;5038792;28;20068;-63
2022/01/25 12:30:24;;;;;;;;;;;;;;;;;;5005441;28;20057;-63
2022/01/25 12:33:04;;;;;;;134.15;60.55;;;;;;;;;;5006410;28;19928;-62
2022/01/25 12:35:44;;;;;;;143.25;62.75;;;;;;;;;;5038633;28;20054;-63
2022/01/25 12:38:12;;;;;;;139.65;60.95;;;;;;;;;;4990061;28;20038;-62
2022/01/25 12:40:41;;;;;;;133.85;59.03;;;;;;;;;;5040587;28;20096;-62
2022/01/25 12:43:30;;;;;;;149.70;65.00;;;;;;;;;;4984397;28;20712;-62
2022/01/25 12:46:10;;;;;;;132.00;58.83;;;;;;;;;;4981953;28;20464;-62
2022/01/25 12:48:36;;;;;;;142.40;63.65;;;;;;;;;;5006804;28;20038;-62
2022/01/25 12:51:10;;;;;;;131.88;58.83;;;;;;;;;;5007078;28;20036;-63
2022/01/25 12:53:40;;;;;;;131.25;58.42;;;;;;;;;;5004965;28;20038;-62
2022/01/25 12:56:11;;;;;;;139.55;62.08;;;;;;;;;;5006258;28;20439;-63
2022/01/25 12:58:38;;;;;;;138.70;62.45;;;;;;;;;;5001271;28;20041;-62
2022/01/25 13:01:06;;;;;;;130.68;59.67;;;;;;;;;;5004305;28;20045;-62
2022/01/25 13:03:34;;;;;;;155.80;64.97;;;;;;;;;;4989322;28;20124;-62
2022/01/25 13:06:08;;;;;;;142.80;63.55;;;;;;;;;;5037512;28;20041;-64
2022/01/25 13:08:36;;;;;;;154.38;66.43;;;;;;;;;;5036425;28;20504;-63
2022/01/25 13:11:16;;;;;;;156.50;66.15;;;;;;;;;;5005676;28;20397;-62
2022/01/25 13:14:02;;;;;;;151.80;66.97;;;;;;;;;;5006822;28;20121;-61
2022/01/25 13:16:55;;;;;;;146.90;63.13;;;;;;;;;;5040608;28;20042;-62
2022/01/25 13:19:26;;;;;;;137.55;59.05;;;;;;;;;;5011180;28;20586;-62
2022/01/25 13:21:56;;;;;;;142.52;62.20;;;;;;;;;;5012416;28;20273;-62
2022/01/25 13:24:27;;;;;;;148.50;64.90;;;;;;;;;;5044312;28;20088;-61
2022/01/25 13:26:58;;;;;;;147.82;64.50;;;;;;;;;;5044147;28;20049;-62
2022/01/25 13:32:14;;;;;;;145.23;63.28;;;;;;;;;;5010803;28;20049;-62
2022/01/25 13:34:41;;;;;;;151.93;65.88;;;;;;;;;;5012250;28;20046;-61
2022/01/25 13:37:18;;;;;;;146.68;65.78;;;;;;;;;;5011965;28;20038;-63
2022/01/25 13:39:52;;;;;;;146.98;65.10;;;;;;;;;;5010634;28;20042;-63
2022/01/25 13:42:26;;;;;;;142.02;63.80;;;;;;;;;;5010772;28;20049;-63
2022/01/25 13:45:48;;;;;;;149.98;65.35;;;;;;;;;;5027394;28;20092;-62
2022/01/25 13:47:56;;;;;;;143.68;62.75;;;;;;;;;;5002780;28;20135;-62
2022/01/25 13:50:22;;;;;;;148.43;63.03;;;;;;;;;;5010204;28;20044;-62
2022/01/25 13:52:51;;;;;;;151.93;65.25;;;;;;;;;;5010737;28;20046;-63
2022/01/25 13:55:17;;;;;;;142.68;63.78;;;;;;;;;;5010818;28;20089;-62
2022/01/25 13:57:43;;;;;;;154.85;68.70;;;;;;;;;;5010676;28;20046;-62
2022/01/25 14:00:11;;;;;;;154.80;66.70;;;;;;;;;;5010041;28;20048;-62
2022/01/25 14:02:37;;;;;;;152.60;68.50;;;;;;;;;;5010329;28;20041;-61
2022/01/25 14:05:03;;;;;;;154.45;66.38;;;;;;;;;;5010261;28;20041;-63
2022/01/25 14:07:35;;;;;;;157.23;67.53;;;;;;;;;;5026531;28;20057;-62
2022/01/25 14:10:10;;;;;;;145.60;61.88;;;;;;;;;;5009963;28;20045;-63
2022/01/25 14:23:45;;;;;;;152.65;65.07;;;;;;;;;;5043272;28;20375;-62
2022/01/25 14:26:11;;;;;;;134.50;59.42;;;;;;;;;;5009540;28;20050;-61
2022/01/25 14:28:41;;;;;;;165.20;70.68;;;;;;;;;;5009825;28;20540;-62
2022/01/25 14:31:14;;;;;;;167.55;70.68;;;;;;;;;;5043139;28;20128;-63
2022/01/25 14:33:48;;;;;;;191.38;75.35;;;;;;;;;;5043230;28;20045;-62
2022/01/25 14:36:15;;;;;;;156.88;66.47;;;;;;;;;;5009790;28;20050;-62
2022/01/25 14:38:43;;;;;;;163.23;68.30;;;;;;;;;;5026065;28;20046;-62
2022/01/25 14:41:09;;;;;;;162.85;68.80;;;;;;;;;;5009565;28;20100;-62
2022/01/25 14:43:37;;;;;;;147.10;64.10;;;;;;;;;;5009972;28;20495;-60
2022/01/25 14:46:09;;;;;;;145.77;60.25;;;;;;;;;;5009806;28;20184;-61
2022/01/25 14:48:37;;;;;;;168.90;72.57;;;;;;;;;;5043121;28;20050;-60
2022/01/25 14:51:04;;;;;;;173.40;71.15;;;;;;;;;;5026189;28;20041;-60
2022/01/25 14:53:30;;;;;;;155.88;64.85;;;;;;;;;;5009806;28;20038;-60
2022/01/25 14:56:01;;;;;;;167.15;69.57;;;;;;;;;;5010770;28;20046;-61
2022/01/25 15:01:13;;;;;;;175.88;70.38;;;;;;;;;;5009321;28;20038;-61
2022/01/25 15:03:39;;;;;;;152.63;66.55;;;;;;;;;;5026191;28;20156;-63
2022/01/25 15:06:05;;;;;;;155.23;64.22;;;;;;;;;;5025499;28;20081;-63
2022/01/25 15:08:32;;;;;;;155.90;66.85;;;;;;;;;;5009036;28;20038;-63
2022/01/25 15:11:00;;;;;;;189.52;74.20;;;;;;;;;;5010557;28;20042;-62
2022/01/25 15:13:28;;;;;;;167.50;68.90;;;;;;;;;;5010708;28;20048;-62
2022/01/25 15:15:56;;;;;;;156.27;66.47;;;;;;;;;;5025792;28;20042;-62
2022/01/25 15:18:26;;;;;;;173.25;70.72;;;;;;;;;;5008947;28;20053;-62
2022/01/25 15:20:52;;;;;;;174.82;69.60;;;;;;;;;;5010180;28;20095;-61
2022/01/25 15:23:21;;;;;;;160.18;67.63;;;;;;;;;;5008703;28;20559;-61
2022/01/25 15:25:48;;;;;;;177.82;73.60;;;;;;;;;;5025797;28;20049;-61
2022/01/25 15:28:16;;;;;;;161.95;68.30;;;;;;;;;;5008803;28;20084;-61
2022/01/25 15:30:42;;;;;;;168.73;71.00;;;;;;;;;;5010184;28;20092;-61
2022/01/25 15:33:10;;;;;;;170.18;69.00;;;;;;;;;;5010130;28;20112;-61
2022/01/25 15:35:37;;;;;;;159.43;68.13;;;;;;;;;;5010440;28;20054;-62
2022/01/25 15:38:03;;;;;;;160.57;65.95;;;;;;;;;;5009834;28;20046;-62
2022/01/25 15:40:31;;;;;;;172.75;69.82;;;;;;;;;;5008105;28;20245;-62
2022/01/25 15:42:57;;;;;;;177.27;74.30;;;;;;;;;;5025509;28;20038;-62
2022/01/25 15:45:28;;;;;;;167.30;69.32;;;;;;;;;;5008590;28;20044;-62
2022/01/25 15:47:54;;;;;;;169.15;72.47;;;;;;;;;;5009782;28;20041;-62
2022/01/25 15:50:23;;;;;;;163.40;71.72;;;;;;;;;;5008595;28;20053;-62
2022/01/25 15:52:49;;;;;;;178.07;73.45;;;;;;;;;;5009954;28;20497;-62
2022/01/25 15:55:15;;;;;;;155.32;66.47;;;;;;;;;;5025269;28;20052;-62
2022/01/25 15:57:41;;;;;;;166.45;72.72;;;;;;;;;;5009755;28;20050;-62
2022/01/25 16:00:08;;;;;;;171.25;73.63;;;;;;;;;;5008660;28;20049;-62
2022/01/25 16:02:34;;;;;;;167.18;71.90;;;;;;;;;;5008409;28;20038;-62
2022/01/25 16:05:00;;;;;;;159.95;69.78;;;;;;;;;;5008329;28;20421;-63
2022/01/25 16:07:26;;;;;;;165.02;73.20;;;;;;;;;;5007051;28;20074;-63
2022/01/25 16:09:58;;;;;;;156.10;68.93;;;;;;;;;;5038840;28;20045;-62
2022/01/25 16:12:26;;;;;;;149.73;62.80;;;;;;;;;;5006261;28;20049;-62
2022/01/25 16:14:52;;;;;;;147.82;64.30;;;;;;;;;;5007700;28;20041;-63
2022/01/25 16:17:18;;;;;;;162.20;70.85;;;;;;;;;;5006108;28;20050;-63
2022/01/25 16:19:44;;;;;;;144.75;65.85;;;;;;;;;;5007641;28;20042;-62
2022/01/25 16:22:10;;;;;;;150.23;66.80;;;;;;;;;;5004629;28;20064;-62
2022/01/25 16:24:37;;;;;;;154.30;66.43;;;;;;;;;;5023168;28;20049;-63